Time;durP1;ratioP1;P1;durP2;ratioP2;P2;SDS_P1;SDS_P2;PMS_P1;PMS_P2;Temp;Humidity;BMP_temperature;BMP_pressure;BME280_temperature;BME280_humidity;BME280_pressure;Samples;Min_cycle;Max_cycle;Signal;HPM_P1;HPM_P2
2023/05/05 00:01:07;;;;;;;0.10;0.10;;;10.00;99.90;;;;;;5087026;28;20525;-72
2023/05/05 00:03:36;;;;;;;0.10;0.10;;;10.00;99.90;;;;;;5085629;28;20016;-73
2023/05/05 00:06:03;;;;;;;0.10;0.10;;;10.00;99.90;;;;;;5093448;28;20020;-72
2023/05/05 00:08:28;;;;;;;0.20;0.20;;;8.20;99.90;;;;;;5093331;28;20320;-74
2023/05/05 00:10:55;;;;;;;0.10;0.10;;;10.10;99.90;;;;;;5102373;28;20530;-79
2023/05/05 00:13:21;;;;;;;0.10;0.10;;;10.10;99.90;;;;;;5101370;28;20028;-75
2023/05/05 00:15:51;;;;;;;0.10;0.10;;;10.20;99.90;;;;;;5102434;28;20240;-76
2023/05/05 00:18:17;;;;;;;0.20;0.20;;;10.20;99.90;;;;;;5101644;28;20017;-73
2023/05/05 00:20:45;;;;;;;0.10;0.10;;;10.20;99.90;;;;;;5102009;28;20021;-73
2023/05/05 00:23:11;;;;;;;0.17;0.17;;;10.30;99.90;;;;;;5100104;28;20016;-72
2023/05/05 00:25:37;;;;;;;0.20;0.20;;;10.30;99.90;;;;;;5095199;28;20108;-72
2023/05/05 00:28:03;;;;;;;3.83;3.63;;;10.40;99.90;;;;;;5090467;28;20059;-72
2023/05/05 00:30:29;;;;;;;0.10;0.10;;;10.30;99.90;;;;;;5092105;28;20112;-73
2023/05/05 00:32:56;;;;;;;0.10;0.10;;;10.30;99.90;;;;;;5101863;28;20016;-70
2023/05/05 00:35:21;;;;;;;0.20;0.20;;;10.30;99.90;;;;;;5084677;28;20083;-72
2023/05/05 00:37:48;;;;;;;2.65;2.55;;;10.20;99.90;;;;;;5085743;28;20371;-72
2023/05/05 00:40:14;;;;;;;0.13;0.13;;;10.20;99.90;;;;;;5085148;28;20024;-72
2023/05/05 00:42:45;;;;;;;1.58;1.58;;;10.20;99.90;;;;;;5086512;28;20111;-72
2023/05/05 00:45:12;;;;;;;0.10;0.10;;;10.20;99.90;;;;;;5085860;28;20594;-72
2023/05/05 00:47:40;;;;;;;0.10;0.10;;;10.10;99.90;;;;;;5082702;28;20407;-72
2023/05/05 00:50:09;;;;;;;0.30;0.30;;;10.00;99.90;;;;;;5083844;28;20506;-73
2023/05/05 00:52:36;;;;;;;7.50;7.03;;;10.00;99.90;;;;;;5085324;28;20533;-73
2023/05/05 00:55:03;;;;;;;2.92;2.80;;;9.70;99.90;;;;;;5085659;28;20337;-72
2023/05/05 00:57:31;;;;;;;0.10;0.10;;;9.60;99.90;;;;;;5083225;28;20024;-73
2023/05/05 00:59:59;;;;;;;0.10;0.10;;;9.60;99.90;;;;;;5083325;28;20111;-73
2023/05/05 01:02:25;;;;;;;0.40;0.40;;;9.60;99.90;;;;;;5085702;28;20040;-73
2023/05/05 01:04:52;;;;;;;0.20;0.20;;;9.50;99.90;;;;;;5083135;28;20306;-72
2023/05/05 01:07:29;;;;;;;0.10;0.10;;;9.40;99.90;;;;;;5081294;28;20043;-75
2023/05/05 01:10:18;;;;;;;0.20;0.20;;;9.40;99.90;;;;;;5085772;28;20024;-72
2023/05/05 01:13:21;;;;;;;7.88;7.15;;;9.40;99.90;;;;;;5083934;28;20742;-71
2023/05/05 01:16:06;;;;;;;0.10;0.10;;;9.30;99.90;;;;;;5082488;28;20085;-73
2023/05/05 01:18:50;;;;;;;0.10;0.10;;;9.30;99.90;;;;;;5082062;28;20059;-72
2023/05/05 01:21:30;;;;;;;0.13;0.13;;;9.30;99.90;;;;;;5082253;28;20039;-75
2023/05/05 01:24:27;;;;;;;0.10;0.10;;;9.30;99.90;;;;;;5081424;28;20042;-72
2023/05/05 01:27:20;;;;;;;0.20;0.20;;;9.40;99.90;;;;;;5081664;28;20356;-71
2023/05/05 01:30:07;;;;;;;0.10;0.10;;;9.30;99.90;;;;;;5085356;28;20091;-72
2023/05/05 01:32:47;;;;;;;0.20;0.20;;;9.30;99.90;;;;;;5084155;28;20093;-71
2023/05/05 01:35:21;;;;;;;0.10;0.10;;;9.30;99.90;;;;;;5084924;28;20128;-77
2023/05/05 01:38:10;;;;;;;0.20;0.20;;;9.30;99.90;;;;;;5087943;28;20039;-75
2023/05/05 01:40:55;;;;;;;0.20;0.20;;;9.30;99.90;;;;;;5090481;28;20059;-75
2023/05/05 01:43:25;;;;;;;0.20;0.20;;;9.20;99.90;;;;;;5093871;28;20028;-72
2023/05/05 01:45:52;;;;;;;0.68;0.68;;;9.20;99.90;;;;;;5085946;28;20587;-71
2023/05/05 01:48:19;;;;;;;0.10;0.10;;;9.10;99.90;;;;;;5086746;28;20017;-73
2023/05/05 01:50:47;;;;;;;0.10;0.10;;;9.10;99.90;;;;;;5084226;28;20032;-73
2023/05/05 01:53:16;;;;;;;0.10;0.10;;;9.00;99.90;;;;;;5036244;28;1363210;-73
2023/05/05 01:55:45;;;;;;;0.20;0.20;;;9.00;99.90;;;;;;5087279;28;20031;-73
2023/05/05 01:58:12;;;;;;;0.10;0.10;;;9.00;99.90;;;;;;5087323;28;20081;-74
2023/05/05 02:00:39;;;;;;;0.10;0.10;;;8.90;99.90;;;;;;5086245;28;20031;-74
2023/05/05 02:03:07;;;;;;;0.10;0.10;;;8.90;99.90;;;;;;5087259;28;20115;-74
2023/05/05 02:05:34;;;;;;;0.10;0.10;;;8.90;99.90;;;;;;5079925;28;20028;-76
2023/05/05 02:08:03;;;;;;;0.20;0.20;;;8.90;99.90;;;;;;5081334;28;20479;-73
2023/05/05 02:10:29;;;;;;;0.20;0.20;;;8.90;99.90;;;;;;5080133;28;20020;-73
2023/05/05 02:12:57;;;;;;;1.25;1.23;;;8.90;99.90;;;;;;5080838;28;20506;-74
2023/05/05 02:15:24;;;;;;;0.10;0.10;;;8.90;99.90;;;;;;5081622;28;20032;-74
2023/05/05 02:17:51;;;;;;;0.15;0.15;;;8.90;99.90;;;;;;5081548;28;20375;-73
2023/05/05 02:20:18;;;;;;;0.20;0.20;;;8.80;99.90;;;;;;5080387;28;20032;-74
2023/05/05 02:22:44;;;;;;;0.10;0.10;;;8.60;99.90;;;;;;5080509;28;20024;-73
2023/05/05 02:25:10;;;;;;;0.10;0.10;;;8.60;99.90;;;;;;5080359;28;20319;-73
2023/05/05 02:27:40;;;;;;;0.10;0.10;;;8.50;99.90;;;;;;5062026;28;20028;-74
2023/05/05 02:30:12;;;;;;;0.10;0.10;;;8.40;99.90;;;;;;5080433;28;20107;-74
2023/05/05 02:33:02;;;;;;;0.10;0.10;;;8.40;99.90;;;;;;5078741;28;20120;-73
2023/05/05 02:35:37;;;;;;;0.10;0.10;;;8.40;99.90;;;;;;5082624;28;20581;-74
2023/05/05 02:38:06;;;;;;;1.75;1.75;;;8.40;99.90;;;;;;5082304;28;20130;-75
2023/05/05 02:40:33;;;;;;;0.10;0.10;;;8.50;99.90;;;;;;5084695;28;20327;-76
2023/05/05 02:43:05;;;;;;;0.10;0.10;;;8.50;99.90;;;;;;5085830;28;20028;-73
2023/05/05 02:45:31;;;;;;;0.13;0.13;;;10.60;99.90;;;;;;5085450;28;20027;-74
2023/05/05 02:48:05;;;;;;;6.20;5.93;;;8.50;99.90;;;;;;5082315;28;20112;-73
2023/05/05 02:50:31;;;;;;;0.10;0.10;;;8.50;99.90;;;;;;5084312;28;20024;-74
2023/05/05 02:53:00;;;;;;;0.10;0.10;;;8.50;99.90;;;;;;5084554;28;20028;-74
2023/05/05 02:55:38;;;;;;;0.40;0.40;;;8.50;99.90;;;;;;5084331;28;20051;-75
2023/05/05 02:58:15;;;;;;;1.05;1.05;;;8.40;99.90;;;;;;5081791;28;20032;-75
2023/05/05 03:00:48;;;;;;;0.10;0.10;;;8.40;99.90;;;;;;5086131;28;20020;-73
2023/05/05 03:04:11;;;;;;;0.20;0.20;;;8.40;99.90;;;;;;5086314;28;20282;-73
2023/05/05 03:06:44;;;;;;;0.10;0.10;;;8.40;99.90;;;;;;5020892;28;20021;-75
2023/05/05 03:09:20;;;;;;;1.37;1.37;;;8.30;99.90;;;;;;5002424;28;20029;-73
2023/05/05 03:11:51;;;;;;;0.10;0.10;;;8.30;99.90;;;;;;5019949;28;20033;-73
2023/05/05 03:14:20;;;;;;;18.08;17.35;;;8.30;99.90;;;;;;5018978;28;20034;-73
2023/05/05 03:16:48;;;;;;;0.10;0.10;;;8.20;99.90;;;;;;5001598;28;20087;-71
2023/05/05 03:19:17;;;;;;;0.20;0.20;;;8.30;99.90;;;;;;5003012;28;20051;-73
2023/05/05 03:21:43;;;;;;;0.20;0.20;;;8.30;99.90;;;;;;5019715;28;20079;-74
2023/05/05 03:24:16;;;;;;;0.20;0.20;;;8.30;99.90;;;;;;5019142;28;20037;-73
2023/05/05 03:26:43;;;;;;;0.10;0.10;;;8.40;99.90;;;;;;5018793;28;20035;-73
2023/05/05 03:29:09;;;;;;;0.30;0.30;;;8.30;99.90;;;;;;5024950;28;20034;-74
2023/05/05 03:31:35;;;;;;;0.10;0.10;;;8.30;99.90;;;;;;5020162;28;20038;-73
2023/05/05 03:34:01;;;;;;;9.77;9.32;;;8.40;99.90;;;;;;5005899;28;20774;-73
2023/05/05 03:36:27;;;;;;;0.10;0.10;;;8.40;99.90;;;;;;5028564;28;20261;-74
2023/05/05 03:38:53;;;;;;;0.10;0.10;;;8.30;99.90;;;;;;5087496;28;20316;-74
2023/05/05 03:41:20;;;;;;;1.20;1.20;;;8.30;99.90;;;;;;5084729;28;20250;-75
2023/05/05 03:43:46;;;;;;;0.10;0.10;;;8.30;99.90;;;;;;5088554;28;20024;-74
2023/05/05 03:46:12;;;;;;;0.10;0.10;;;8.20;99.90;;;;;;5086880;28;20395;-73
2023/05/05 03:48:38;;;;;;;0.10;0.10;;;8.20;99.90;;;;;;5087574;28;20514;-73
2023/05/05 03:51:03;;;;;;;0.00;0.00;;;8.10;99.90;;;;;;5080056;28;20368;-74
2023/05/05 03:53:29;;;;;;;0.10;0.10;;;8.00;99.90;;;;;;5081037;28;20349;-74
2023/05/05 03:55:55;;;;;;;0.10;0.10;;;8.00;99.90;;;;;;5078407;28;20020;-76
2023/05/05 03:58:21;;;;;;;0.05;0.05;;;8.00;99.90;;;;;;5078675;28;20116;-75
2023/05/05 04:00:46;;;;;;;0.10;0.10;;;8.00;99.90;;;;;;5078248;28;20055;-73
2023/05/05 04:03:12;;;;;;;0.10;0.10;;;8.00;99.90;;;;;;5078257;28;20023;-74
2023/05/05 04:05:38;;;;;;;0.13;0.13;;;8.00;99.90;;;;;;5083080;28;20180;-75
2023/05/05 04:08:04;;;;;;;0.10;0.10;;;7.90;99.90;;;;;;5085040;28;20020;-73
2023/05/05 04:10:30;;;;;;;0.10;0.10;;;6.90;99.90;;;;;;5080241;28;20096;-72
2023/05/05 04:12:56;;;;;;;0.10;0.10;;;7.90;99.90;;;;;;5080242;28;20308;-74
2023/05/05 04:15:21;;;;;;;0.40;0.40;;;8.00;99.90;;;;;;5077911;28;20032;-73
2023/05/05 04:17:47;;;;;;;0.43;0.43;;;8.10;99.90;;;;;;5081184;28;20300;-73
2023/05/05 04:20:13;;;;;;;0.10;0.10;;;8.10;99.90;;;;;;5081506;28;20021;-74
2023/05/05 04:22:39;;;;;;;0.63;0.63;;;8.10;99.90;;;;;;5086367;28;20661;-74
2023/05/05 04:25:05;;;;;;;0.10;0.10;;;8.20;99.90;;;;;;5090053;28;20032;-75
2023/05/05 04:27:31;;;;;;;10.07;9.45;;;8.30;99.90;;;;;;5093858;28;20055;-74
2023/05/05 04:29:57;;;;;;;0.00;0.00;;;7.90;99.90;;;;;;5096824;28;20054;-74
2023/05/05 04:32:22;;;;;;;0.10;0.10;;;8.40;99.90;;;;;;5098520;28;20030;-75
2023/05/05 04:34:48;;;;;;;0.10;0.10;;;8.50;99.90;;;;;;5091008;28;20062;-75
2023/05/05 04:37:14;;;;;;;0.10;0.10;;;8.60;99.90;;;;;;5081679;28;20319;-74
2023/05/05 04:39:40;;;;;;;0.10;0.10;;;8.70;99.90;;;;;;5082598;28;20487;-74
2023/05/05 04:42:06;;;;;;;0.10;0.10;;;8.70;99.90;;;;;;5084022;28;20027;-74
2023/05/05 04:44:33;;;;;;;0.10;0.10;;;8.80;99.90;;;;;;5086431;28;20027;-74
2023/05/05 04:47:02;;;;;;;1.17;1.17;;;8.70;99.90;;;;;;5085124;28;20036;-72
2023/05/05 04:49:29;;;;;;;0.20;0.20;;;8.80;99.90;;;;;;5085193;28;20245;-73
2023/05/05 04:51:55;;;;;;;0.10;0.10;;;8.70;99.90;;;;;;5085744;28;20223;-73
2023/05/05 04:54:21;;;;;;;0.20;0.20;;;8.80;99.90;;;;;;5086335;28;20044;-73
2023/05/05 04:56:47;;;;;;;0.10;0.10;;;8.80;99.90;;;;;;5086914;28;20631;-73
2023/05/05 04:59:14;;;;;;;0.15;0.15;;;8.90;99.90;;;;;;5088080;28;20043;-73
2023/05/05 05:01:40;;;;;;;0.52;0.52;;;8.90;99.90;;;;;;5085020;28;20028;-73
2023/05/05 05:04:07;;;;;;;0.10;0.10;;;8.90;99.90;;;;;;5085343;28;20050;-73
2023/05/05 05:06:32;;;;;;;0.10;0.10;;;8.90;99.90;;;;;;5084578;28;20307;-74
2023/05/05 05:08:58;;;;;;;0.10;0.10;;;9.00;99.90;;;;;;5083616;28;20228;-73
2023/05/05 05:11:24;;;;;;;0.20;0.20;;;9.00;99.90;;;;;;5085569;28;20016;-74
2023/05/05 05:13:50;;;;;;;0.20;0.20;;;8.90;99.90;;;;;;5085856;28;20028;-74
2023/05/05 05:16:16;;;;;;;0.68;0.68;;;8.90;99.90;;;;;;5087687;28;20074;-74
2023/05/05 05:18:41;;;;;;;0.20;0.20;;;8.90;99.90;;;;;;5088372;28;20032;-73
2023/05/05 05:21:07;;;;;;;0.10;0.10;;;9.00;99.90;;;;;;5086900;28;20446;-73
2023/05/05 05:23:33;;;;;;;0.20;0.20;;;9.10;99.90;;;;;;5084767;28;20025;-73
2023/05/05 05:25:59;;;;;;;0.10;0.10;;;9.30;99.90;;;;;;5083311;28;20371;-74
2023/05/05 05:28:25;;;;;;;2.47;2.28;;;9.20;99.90;;;;;;5085353;28;20360;-76
2023/05/05 05:30:51;;;;;;;0.08;0.08;;;9.30;99.90;;;;;;5085785;28;20028;-74
2023/05/05 05:33:17;;;;;;;0.20;0.20;;;9.30;99.90;;;;;;5084304;28;20429;-74
2023/05/05 05:35:43;;;;;;;0.10;0.10;;;9.30;99.90;;;;;;5081967;28;20026;-73
2023/05/05 05:38:09;;;;;;;0.20;0.20;;;9.50;99.90;;;;;;5082873;28;20031;-73
2023/05/05 05:40:35;;;;;;;1.27;1.27;;;9.60;99.90;;;;;;5083177;28;20051;-73
2023/05/05 05:43:01;;;;;;;0.20;0.20;;;9.60;99.90;;;;;;5085090;28;20038;-73
2023/05/05 05:45:27;;;;;;;0.10;0.10;;;9.70;99.90;;;;;;5083777;28;20012;-73
2023/05/05 05:47:53;;;;;;;0.60;0.60;;;9.80;99.90;;;;;;5085024;28;20038;-74
2023/05/05 05:50:19;;;;;;;0.20;0.20;;;9.90;99.90;;;;;;5081273;28;20081;-73
2023/05/05 05:52:45;;;;;;;0.20;0.20;;;10.00;99.90;;;;;;5080100;28;20471;-74
2023/05/05 05:55:11;;;;;;;0.20;0.20;;;10.10;99.90;;;;;;5080365;28;20044;-73
2023/05/05 05:57:38;;;;;;;0.10;0.10;;;10.20;99.90;;;;;;5079565;28;20152;-73
2023/05/05 06:00:05;;;;;;;0.20;0.20;;;10.30;99.90;;;;;;5083611;28;20098;-73
2023/05/05 06:02:31;;;;;;;0.20;0.20;;;10.40;99.90;;;;;;5083870;28;20012;-73
2023/05/05 06:04:57;;;;;;;0.20;0.20;;;10.40;99.90;;;;;;5082073;28;20024;-74
2023/05/05 06:07:23;;;;;;;0.17;0.17;;;10.50;99.90;;;;;;5105179;28;20021;-74
2023/05/05 06:09:49;;;;;;;0.13;0.13;;;10.60;99.90;;;;;;5107233;28;20020;-75
2023/05/05 06:12:15;;;;;;;0.20;0.20;;;10.70;99.90;;;;;;5104675;28;20036;-76
2023/05/05 06:14:41;;;;;;;0.22;0.22;;;10.80;99.90;;;;;;5104594;28;20035;-75
2023/05/05 06:17:07;;;;;;;6.07;5.75;;;10.90;99.90;;;;;;5101444;28;20032;-74
2023/05/05 06:19:33;;;;;;;10.40;4.07;;;11.00;99.90;;;;;;5104079;28;20043;-74
2023/05/05 06:21:59;;;;;;;0.17;0.17;;;11.10;99.90;;;;;;5081340;28;20298;-74
2023/05/05 06:24:24;;;;;;;0.30;0.30;;;11.10;99.90;;;;;;5082023;28;20683;-73
2023/05/05 06:26:50;;;;;;;0.30;0.30;;;11.30;99.90;;;;;;5079042;28;20016;-74
2023/05/05 06:29:16;;;;;;;1.35;1.33;;;11.40;99.90;;;;;;5079679;28;20039;-73
2023/05/05 06:31:41;;;;;;;0.20;0.20;;;11.50;99.90;;;;;;5080719;28;20028;-73
2023/05/05 06:34:08;;;;;;;0.10;0.10;;;11.60;99.90;;;;;;5079961;28;20028;-73
2023/05/05 06:36:34;;;;;;;0.30;0.30;;;11.70;99.90;;;;;;5082169;28;20590;-77
2023/05/05 06:39:00;;;;;;;0.40;0.40;;;11.80;99.90;;;;;;5082694;28;20514;-78
2023/05/05 06:41:26;;;;;;;0.20;0.20;;;11.90;99.90;;;;;;5081747;28;20028;-73
2023/05/05 06:43:51;;;;;;;0.10;0.10;;;11.90;99.90;;;;;;5081384;28;20043;-73
2023/05/05 06:46:17;;;;;;;0.20;0.20;;;12.00;99.90;;;;;;5080414;28;20101;-75
2023/05/05 06:48:43;;;;;;;0.10;0.10;;;12.10;99.90;;;;;;5079850;28;20031;-73
2023/05/05 06:51:08;;;;;;;0.80;0.80;;;12.20;99.90;;;;;;5081032;28;20099;-75
2023/05/05 06:53:34;;;;;;;1.50;1.42;;;12.20;99.90;;;;;;5080556;28;20050;-78
2023/05/05 06:56:00;;;;;;;0.10;0.10;;;12.30;99.90;;;;;;5077713;28;20028;-73
2023/05/05 06:58:26;;;;;;;0.20;0.20;;;12.40;99.90;;;;;;5078037;28;20032;-73
2023/05/05 07:00:52;;;;;;;0.10;0.10;;;15.50;99.90;;;;;;5079529;28;20020;-73
2023/05/05 07:03:18;;;;;;;13.27;4.72;;;12.60;99.90;;;;;;5077576;28;20332;-74
2023/05/05 07:05:44;;;;;;;0.50;0.50;;;12.60;99.90;;;;;;5079412;28;20063;-74
2023/05/05 07:08:10;;;;;;;0.20;0.20;;;12.60;99.90;;;;;;5078722;28;20545;-82
2023/05/05 07:10:36;;;;;;;0.20;0.20;;;12.60;99.90;;;;;;5079272;28;20081;-84
2023/05/05 07:13:01;;;;;;;1.70;1.60;;;12.70;99.90;;;;;;5078777;28;20081;-79
2023/05/05 07:15:27;;;;;;;0.10;0.10;;;12.90;99.90;;;;;;5078907;28;20028;-78
2023/05/05 07:17:53;;;;;;;3.25;3.05;;;14.20;99.90;;;;;;5077608;28;20120;-73
2023/05/05 07:20:19;;;;;;;1.33;1.25;;;13.20;99.90;;;;;;5077830;28;20032;-80
2023/05/05 07:22:44;;;;;;;0.57;0.57;;;13.40;99.90;;;;;;5078172;28;20323;-77
2023/05/05 07:25:11;;;;;;;0.20;0.20;;;13.50;99.90;;;;;;5077641;28;20016;-75
2023/05/05 07:27:37;;;;;;;0.20;0.20;;;13.70;99.90;;;;;;5075782;28;20247;-74
2023/05/05 07:30:03;;;;;;;0.40;0.40;;;13.80;99.90;;;;;;5078690;28;20138;-73
2023/05/05 07:32:29;;;;;;;0.40;0.40;;;13.90;99.90;;;;;;5077192;28;20039;-75
2023/05/05 07:34:55;;;;;;;0.35;0.35;;;14.10;99.90;;;;;;5083913;28;20017;-73
2023/05/05 07:37:21;;;;;;;0.10;0.10;;;14.20;99.90;;;;;;5078029;28;20020;-78
2023/05/05 07:39:47;;;;;;;0.10;0.10;;;14.40;99.90;;;;;;5077786;28;20036;-71
2023/05/05 07:42:13;;;;;;;1.55;1.55;;;14.30;99.90;;;;;;5077332;28;20051;-72
2023/05/05 07:44:39;;;;;;;0.93;0.93;;;14.20;99.90;;;;;;5077552;28;20047;-72
2023/05/05 07:47:05;;;;;;;0.95;0.90;;;14.30;99.90;;;;;;5075111;28;20561;-73
2023/05/05 07:49:31;;;;;;;0.30;0.30;;;14.30;99.90;;;;;;5077644;28;20216;-74
2023/05/05 07:51:57;;;;;;;0.30;0.30;;;14.50;99.90;;;;;;5077366;28;20028;-74
2023/05/05 07:54:23;;;;;;;0.15;0.15;;;14.50;99.90;;;;;;5077709;28;20211;-74
2023/05/05 07:56:48;;;;;;;0.20;0.20;;;14.40;99.90;;;;;;5077625;28;20183;-72
2023/05/05 07:59:14;;;;;;;0.20;0.20;;;14.30;99.90;;;;;;5077297;28;20726;-71
2023/05/05 08:01:40;;;;;;;0.10;0.10;;;14.40;99.90;;;;;;5077680;28;20726;-74
2023/05/05 08:04:06;;;;;;;0.20;0.20;;;14.40;99.90;;;;;;5076299;28;20027;-73
2023/05/05 08:06:32;;;;;;;5.28;4.80;;;14.60;99.90;;;;;;5077129;28;20137;-71
2023/05/05 08:09:02;;;;;;;0.10;0.10;;;14.80;99.90;;;;;;5077560;28;20039;-74
2023/05/05 08:11:28;;;;;;;0.40;0.40;;;16.70;99.90;;;;;;5076797;28;20020;-74
2023/05/05 08:13:53;;;;;;;0.10;0.10;;;15.10;99.90;;;;;;5076965;28;20035;-73
2023/05/05 08:16:19;;;;;;;0.20;0.20;;;15.20;99.90;;;;;;5077507;28;20027;-75
2023/05/05 08:18:47;;;;;;;0.15;0.15;;;15.40;99.90;;;;;;5081692;28;20053;-75
2023/05/05 08:21:13;;;;;;;0.68;0.68;;;15.20;99.90;;;;;;5079685;28;20206;-73
2023/05/05 08:23:39;;;;;;;0.17;0.17;;;15.40;99.90;;;;;;5081669;28;20828;-76
2023/05/05 08:26:06;;;;;;;0.20;0.20;;;15.20;99.90;;;;;;5081681;28;20539;-78
2023/05/05 08:28:33;;;;;;;0.50;0.50;;;15.30;99.90;;;;;;5081235;28;20016;-81
2023/05/05 08:30:59;;;;;;;0.20;0.20;;;15.40;99.90;;;;;;5081024;28;20795;-74
2023/05/05 08:33:24;;;;;;;0.20;0.20;;;15.40;99.90;;;;;;5081180;28;20074;-73
2023/05/05 08:35:51;;;;;;;0.30;0.30;;;;;;;;;;5082185;28;20012;-75
2023/05/05 08:38:17;;;;;;;0.43;0.43;;;15.70;99.90;;;;;;5079815;28;20513;-76
2023/05/05 08:40:44;;;;;;;0.20;0.20;;;16.20;99.90;;;;;;5085625;28;20298;-78
2023/05/05 08:43:10;;;;;;;0.10;0.10;;;16.20;99.90;;;;;;5082266;28;20108;-74
2023/05/05 08:45:40;;;;;;;22.48;2.85;;;15.80;99.90;;;;;;5080738;28;20039;-73
2023/05/05 08:48:07;;;;;;;0.10;0.10;;;15.70;99.90;;;;;;5081035;28;20024;-77
2023/05/05 08:50:33;;;;;;;0.35;0.35;;;15.90;99.90;;;;;;5081835;28;20026;-80
2023/05/05 08:53:09;;;;;;;1.40;1.35;;;15.70;99.90;;;;;;5081296;28;20058;-75
2023/05/05 08:55:43;;;;;;;6.15;5.57;;;15.70;99.90;;;;;;5081157;28;20046;-73
2023/05/05 08:58:09;;;;;;;0.20;0.20;;;15.90;99.90;;;;;;5081598;28;20031;-80
2023/05/05 09:00:35;;;;;;;0.10;0.10;;;16.00;99.90;;;;;;5081689;28;20177;-79
2023/05/05 09:03:02;;;;;;;0.25;0.25;;;16.20;99.90;;;;;;5081293;28;20113;-74
2023/05/05 09:05:27;;;;;;;1.17;1.17;;;16.10;99.90;;;;;;5082369;28;20368;-79
2023/05/05 09:07:53;;;;;;;0.10;0.10;;;15.90;99.90;;;;;;5085645;28;20677;-86
2023/05/05 09:10:19;;;;;;;2.88;2.75;;;15.90;99.90;;;;;;5086151;28;20521;-73
2023/05/05 09:12:45;;;;;;;0.25;0.25;;;16.10;99.90;;;;;;5084514;28;20028;-77
2023/05/05 09:15:13;;;;;;;2.33;2.22;;;16.10;99.90;;;;;;5084679;28;20031;-80
2023/05/05 09:17:42;;;;;;;0.20;0.20;;;16.10;99.90;;;;;;5080904;28;20020;-81
2023/05/05 09:20:12;;;;;;;0.20;0.20;;;16.00;99.90;;;;;;5082308;28;20111;-76
2023/05/05 09:22:45;;;;;;;0.57;0.57;;;16.30;99.90;;;;;;5080523;28;20052;-75
2023/05/05 09:25:12;;;;;;;;;;;16.50;99.90;;;;;;5080754;28;20046;-73
2023/05/05 09:27:41;;;;;;;8.90;3.50;;;16.80;99.90;;;;;;5079347;28;19908;-78
2023/05/05 09:30:08;;;;;;;0.30;0.30;;;17.10;99.90;;;;;;5080119;28;20022;-73
2023/05/05 09:32:51;;;;;;;0.40;0.40;;;17.20;99.90;;;;;;5078478;28;20028;-81
2023/05/05 09:35:21;;;;;;;0.32;0.32;;;17.50;99.90;;;;;;5079644;28;20502;-76
2023/05/05 09:37:47;;;;;;;0.50;0.50;;;17.80;99.90;;;;;;5080078;28;20024;-81
2023/05/05 09:40:15;;;;;;;0.10;0.10;;;17.80;99.90;;;;;;5080181;28;20224;-76
2023/05/05 09:42:41;;;;;;;2.05;1.95;;;17.50;99.90;;;;;;5080262;28;20700;-73
2023/05/05 09:45:16;;;;;;;0.40;0.40;;;18.00;99.90;;;;;;5079795;28;20024;-74
2023/05/05 09:47:44;;;;;;;0.10;0.10;;;18.30;99.90;;;;;;5079564;28;20020;-73
2023/05/05 09:50:14;;;;;;;0.30;0.30;;;18.50;99.90;;;;;;5079837;28;20051;-79
2023/05/05 09:52:41;;;;;;;0.65;0.65;;;18.70;99.90;;;;;;5079793;28;20024;-72
2023/05/05 09:55:16;;;;;;;0.85;0.85;;;18.80;99.90;;;;;;5079078;28;20741;-81
2023/05/05 09:57:42;;;;;;;0.40;0.40;;;18.90;99.90;;;;;;5079155;28;20047;-72
2023/05/05 10:00:10;;;;;;;10.20;9.30;;;19.10;99.90;;;;;;5077638;28;20173;-72
2023/05/05 10:02:37;;;;;;;1.13;1.02;;;19.20;99.90;;;;;;5079523;28;20109;-77
2023/05/05 10:05:23;;;;;;;0.20;0.20;;;19.40;99.90;;;;;;5079154;28;20016;-72
2023/05/05 10:07:50;;;;;;;0.55;0.55;;;19.60;99.90;;;;;;5078438;28;20747;-72
2023/05/05 10:10:17;;;;;;;0.22;0.22;;;19.60;99.90;;;;;;5079078;28;20043;-73
2023/05/05 10:12:46;;;;;;;0.10;0.10;;;19.60;99.90;;;;;;5077944;28;20066;-73
2023/05/05 10:15:14;;;;;;;0.65;0.65;;;19.80;99.90;;;;;;5078531;28;20024;-73
2023/05/05 10:17:47;;;;;;;0.17;0.17;;;19.80;99.90;;;;;;5079016;28;20020;-73
2023/05/05 10:20:14;;;;;;;0.60;0.60;;;20.10;99.90;;;;;;5077435;28;20044;-72
2023/05/05 10:22:53;;;;;;;0.28;0.28;;;20.30;99.90;;;;;;5078786;28;20061;-73
2023/05/05 10:25:46;;;;;;;1.95;1.85;;;20.40;99.90;;;;;;5078897;28;20032;-81
2023/05/05 10:28:18;;;;;;;0.10;0.10;;;20.30;99.90;;;;;;4999292;28;20053;-81
2023/05/05 10:30:48;;;;;;;0.23;0.23;;;20.30;99.90;;;;;;5015903;28;20025;-73
2023/05/05 10:33:21;;;;;;;3.10;2.72;;;20.40;99.90;;;;;;5015380;28;20022;-74
2023/05/05 10:35:51;;;;;;;2.30;2.20;;;20.40;99.90;;;;;;5015737;28;20703;-77
2023/05/05 10:38:18;;;;;;;1.45;1.38;;;19.70;99.90;;;;;;4999375;28;20618;-77
2023/05/05 10:40:46;;;;;;;0.25;0.25;;;19.50;99.90;;;;;;5014730;28;20029;-72
2023/05/05 10:43:15;;;;;;;0.10;0.10;;;19.80;99.90;;;;;;5015202;28;20030;-73
2023/05/05 10:45:42;;;;;;;0.55;0.55;;;20.10;99.90;;;;;;5015335;28;20041;-75
2023/05/05 10:48:14;;;;;;;0.10;0.10;;;20.40;99.90;;;;;;5015441;28;20040;-74
2023/05/05 10:50:46;;;;;;;0.43;0.43;;;19.60;99.90;;;;;;5015234;28;20181;-73
2023/05/05 10:53:37;;;;;;;0.10;0.10;;;21.00;99.60;;;;;;5015109;28;20022;-79
2023/05/05 10:56:14;;;;;;;2.17;2.08;;;21.10;99.10;;;;;;5016159;28;20053;-79
2023/05/05 10:58:40;;;;;;;1.45;1.30;;;21.60;98.20;;;;;;5015558;28;20061;-73
2023/05/05 11:01:06;;;;;;;0.10;0.10;;;22.00;97.40;;;;;;5015395;28;20099;-78
2023/05/05 11:03:32;;;;;;;0.80;0.80;;;22.60;97.10;;;;;;5015348;28;20122;-77
2023/05/05 11:06:06;;;;;;;0.10;0.10;;;23.00;94.40;;;;;;5068214;28;20057;-73
2023/05/05 11:08:34;;;;;;;0.10;0.10;;;23.30;93.10;;;;;;5078113;28;20654;-73
2023/05/05 11:11:00;;;;;;;1.50;1.40;;;23.50;94.00;;;;;;5078282;28;20093;-72
2023/05/05 11:13:27;;;;;;;0.77;0.77;;;23.50;93.60;;;;;;5077982;28;20035;-72
2023/05/05 11:15:54;;;;;;;0.20;0.20;;;23.00;94.70;;;;;;5077361;28;20044;-71
2023/05/05 11:18:39;;;;;;;0.10;0.10;;;23.20;91.00;;;;;;5077476;28;20032;-72
2023/05/05 11:21:16;;;;;;;1.33;1.17;;;23.50;92.20;;;;;;5078031;28;20270;-73
2023/05/05 11:23:51;;;;;;;0.63;0.63;;;23.90;88.50;;;;;;5075620;28;20719;-72
2023/05/05 11:26:39;;;;;;;6.97;2.85;;;24.00;89.70;;;;;;5077772;28;20028;-73
2023/05/05 11:29:05;;;;;;;0.80;0.80;;;;;;;;;;5077493;28;20012;-73
2023/05/05 11:31:31;;;;;;;1.05;0.95;;;24.50;82.40;;;;;;5077629;28;20012;-73
2023/05/05 11:34:22;;;;;;;0.20;0.20;;;24.70;84.30;;;;;;5077303;28;20521;-73
2023/05/05 11:36:48;;;;;;;0.10;0.10;;;;;;;;;;5077623;28;20044;-74
2023/05/05 11:39:46;;;;;;;1.08;0.93;;;25.20;77.00;;;;;;5077391;28;20024;-72
2023/05/05 11:42:23;;;;;;;1.08;1.00;;;25.70;75.70;;;;;;5076134;28;20020;-73
2023/05/05 11:44:50;;;;;;;0.10;0.10;;;25.90;74.90;;;;;;5077550;28;20555;-74
2023/05/05 11:47:16;;;;;;;0.17;0.17;;;25.80;72.90;;;;;;5076788;28;20672;-76
2023/05/05 11:49:42;;;;;;;0.63;0.63;;;25.80;74.30;;;;;;5077328;28;20101;-72
2023/05/05 11:52:12;;;;;;;1.17;1.10;;;25.60;74.70;;;;;;5080686;28;20024;-73
2023/05/05 11:54:47;;;;;;;0.20;0.20;;;26.10;75.40;;;;;;5081626;28;20170;-73
2023/05/05 11:57:21;;;;;;;0.63;0.43;;;26.10;73.60;;;;;;5081360;28;20020;-73
2023/05/05 11:59:58;;;;;;;0.95;0.77;;;26.80;71.20;;;;;;5082075;28;20043;-78
2023/05/05 12:02:28;;;;;;;1.10;0.70;;;27.10;67.30;;;;;;5081497;28;20023;-73
2023/05/05 12:04:55;;;;;;;0.10;0.10;;;26.60;65.00;;;;;;5081663;28;20104;-74
2023/05/05 12:07:25;;;;;;;0.10;0.08;;;26.30;65.40;;;;;;5081484;28;20017;-73
2023/05/05 12:09:52;;;;;;;0.00;0.00;;;25.40;67.40;;;;;;5081636;28;20024;-77
2023/05/05 12:12:19;;;;;;;0.30;0.20;;;25.50;68.30;;;;;;5080080;28;20039;-73
2023/05/05 12:14:51;;;;;;;0.20;0.20;;;25.50;68.50;;;;;;5080210;28;20787;-73
2023/05/05 12:17:20;;;;;;;;;;;25.30;69.80;;;;;;5082865;28;20019;-78
2023/05/05 12:19:53;;;;;;;0.52;0.52;;;25.40;69.00;;;;;;5082182;28;19993;-82
2023/05/05 12:22:29;;;;;;;0.43;0.43;;;25.20;68.80;;;;;;5081639;28;20031;-77
2023/05/05 12:25:01;;;;;;;0.20;0.20;;;26.00;67.70;;;;;;5081574;28;20028;-73
2023/05/05 12:27:28;;;;;;;0.00;0.00;;;23.30;65.80;;;;;;5081582;28;20107;-78
2023/05/05 12:29:55;;;;;;;0.05;0.05;;;26.30;69.70;;;;;;5081476;28;20031;-75
2023/05/05 12:32:25;;;;;;;0.15;0.15;;;26.70;66.90;;;;;;5081590;28;20767;-76
2023/05/05 12:34:55;;;;;;;0.00;0.00;;;27.40;66.40;;;;;;5080146;28;20039;-75
2023/05/05 12:37:22;;;;;;;0.25;0.25;;;27.10;63.90;;;;;;5081287;28;20699;-73
2023/05/05 12:39:49;;;;;;;0.35;0.28;;;26.90;65.50;;;;;;5080515;28;20093;-73
2023/05/05 12:42:15;;;;;;;0.50;0.50;;;26.80;65.60;;;;;;5081571;28;20258;-75
2023/05/05 12:44:43;;;;;;;0.10;0.10;;;26.50;63.90;;;;;;5081998;28;20023;-75
2023/05/05 12:47:12;;;;;;;0.10;0.10;;;24.40;63.60;;;;;;5081426;28;20008;-74
2023/05/05 12:49:48;;;;;;;0.20;0.13;;;25.30;66.50;;;;;;5082148;28;20577;-74
2023/05/05 12:52:15;;;;;;;0.05;0.05;;;24.80;66.50;;;;;;5083841;28;20020;-77
2023/05/05 12:54:52;;;;;;;0.00;0.00;;;24.40;68.10;;;;;;5080329;28;20201;-72
2023/05/05 12:57:17;;;;;;;0.10;0.10;;;24.20;68.10;;;;;;5080400;28;20028;-72
2023/05/05 12:59:43;;;;;;;1.83;1.75;;;23.60;72.00;;;;;;5080482;28;20057;-73
2023/05/05 13:02:09;;;;;;;0.20;0.20;;;23.60;72.00;;;;;;5080509;28;20062;-72